createdAt,value
2023-04-14T00:01:38.852Z,1.40
2023-04-14T00:04:06.629Z,1.50
2023-04-14T00:06:33.419Z,1.50
2023-04-14T00:09:00.491Z,1.27
2023-04-14T00:11:27.418Z,1.40
2023-04-14T00:13:56.465Z,1.55
2023-04-14T00:16:23.377Z,1.30
2023-04-14T00:18:50.185Z,1.30
2023-04-14T00:21:16.877Z,1.20
2023-04-14T00:23:43.545Z,1.05
2023-04-14T00:26:10.487Z,0.90
2023-04-14T00:28:41.173Z,1.20
2023-04-14T00:31:08.584Z,1.23
2023-04-14T00:33:35.320Z,1.38
2023-04-14T00:36:02.056Z,1.23
2023-04-14T00:38:31.399Z,1.58
2023-04-14T00:40:58.176Z,1.50
2023-04-14T00:43:24.963Z,1.40
2023-04-14T00:45:52.441Z,1.48
2023-04-14T00:48:19.964Z,1.40
2023-04-14T00:50:47.330Z,1.00
2023-04-14T00:53:14.711Z,1.50
2023-04-14T00:55:41.867Z,1.30
2023-04-14T00:58:09.075Z,1.25
2023-04-14T01:00:36.169Z,1.52
2023-04-14T01:03:03.192Z,1.20
2023-04-14T01:05:30.420Z,1.38
2023-04-14T01:07:57.566Z,1.17
2023-04-14T01:10:26.672Z,1.52
2023-04-14T01:13:26.496Z,1.20
2023-04-14T01:15:59.778Z,1.20
2023-04-14T01:18:46.356Z,1.17
2023-04-14T01:21:20.952Z,1.30
2023-04-14T01:24:17.123Z,1.05
2023-04-14T01:26:44.260Z,1.00
2023-04-14T01:29:52.899Z,1.17
2023-04-14T01:32:23.111Z,1.27
2023-04-14T01:34:58.095Z,1.85
2023-04-14T01:37:47.709Z,1.50
2023-04-14T01:40:19.454Z,1.33
2023-04-14T01:42:52.324Z,1.30
2023-04-14T01:45:27.739Z,1.30
2023-04-14T01:47:55.892Z,1.77
2023-04-14T01:50:25.452Z,1.70
2023-04-14T01:52:54.390Z,1.50
2023-04-14T01:55:23.969Z,2.25
2023-04-14T01:57:52.056Z,1.55
2023-04-14T02:00:20.448Z,1.92
2023-04-14T02:02:50.756Z,1.20
2023-04-14T02:05:18.934Z,1.33
2023-04-14T02:07:48.529Z,1.60
2023-04-14T02:10:20.828Z,1.40
2023-04-14T02:12:48.371Z,1.63
2023-04-14T02:15:18.642Z,1.67
2023-04-14T02:17:48.393Z,2.58
2023-04-14T02:20:15.405Z,1.50
2023-04-14T02:22:42.251Z,2.50
2023-04-14T02:25:09.270Z,1.80
2023-04-14T02:27:41.309Z,1.45
2023-04-14T02:32:41.309Z,1.58
2023-04-14T02:35:16.964Z,1.67
2023-04-14T02:37:51.832Z,1.48
2023-04-14T02:40:24.670Z,1.63
2023-04-14T02:43:07.933Z,1.30
2023-04-14T02:45:36.515Z,1.10
2023-04-14T02:48:10.376Z,2.47
2023-04-14T02:50:37.516Z,1.58
2023-04-14T02:53:13.888Z,1.67
2023-04-14T02:55:40.830Z,1.27
2023-04-14T02:58:07.697Z,1.63
2023-04-14T03:00:40.290Z,1.77
2023-04-14T03:03:08.201Z,1.60
2023-04-14T03:05:36.685Z,1.85
2023-04-14T03:08:11.127Z,1.48
2023-04-14T03:13:08.951Z,2.20
2023-04-14T03:15:37.564Z,1.40
2023-04-14T03:18:05.842Z,1.95
2023-04-14T03:20:34.189Z,1.60
2023-04-14T03:23:05.456Z,2.03
2023-04-14T03:25:38.816Z,2.10
2023-04-14T03:28:15.864Z,1.75
2023-04-14T03:30:49.156Z,2.17
2023-04-14T03:33:20.742Z,2.10
2023-04-14T03:35:49.973Z,2.50
2023-04-14T03:38:16.992Z,1.80
2023-04-14T03:40:47.651Z,1.90
2023-04-14T03:43:22.713Z,1.70
2023-04-14T03:45:56.943Z,1.90
2023-04-14T03:48:26.341Z,2.00
2023-04-14T03:50:54.855Z,2.05
2023-04-14T03:53:22.040Z,2.28
2023-04-14T03:55:51.791Z,2.20
2023-04-14T03:58:18.931Z,2.10
2023-04-14T04:00:47.928Z,2.10
2023-04-14T04:03:15.910Z,1.98
2023-04-14T04:05:43.492Z,1.98
2023-04-14T04:08:11.592Z,2.22
2023-04-14T04:10:39.234Z,1.77
2023-04-14T04:13:17.222Z,2.05
2023-04-14T04:15:46.482Z,2.55
2023-04-14T04:18:16.775Z,1.75
2023-04-14T04:20:47.284Z,2.10
2023-04-14T04:23:17.567Z,2.53
2023-04-14T04:25:44.585Z,2.20
2023-04-14T04:28:31.695Z,2.10
2023-04-14T04:31:00.636Z,1.88
2023-04-14T04:33:30.390Z,1.98
2023-04-14T04:35:58.290Z,2.53
2023-04-14T04:38:31.199Z,2.28
2023-04-14T04:40:58.474Z,2.40
2023-04-14T04:43:27.691Z,2.38
2023-04-14T04:46:26.233Z,2.65
2023-04-14T04:48:54.430Z,2.67
2023-04-14T04:51:21.163Z,2.60
2023-04-14T04:53:47.956Z,3.03
2023-04-14T04:56:14.690Z,2.40
2023-04-14T04:58:41.574Z,3.63
2023-04-14T05:01:11.793Z,3.22
2023-04-14T05:03:38.769Z,2.58
2023-04-14T05:06:05.813Z,3.67
2023-04-14T05:08:32.548Z,3.13
2023-04-14T05:10:59.213Z,2.67
2023-04-14T05:13:26.026Z,3.15
2023-04-14T05:15:53.154Z,2.92
2023-04-14T05:18:20.051Z,3.67
2023-04-14T05:20:46.747Z,3.35
2023-04-14T05:23:13.517Z,3.08
2023-04-14T05:25:40.712Z,2.63
2023-04-14T05:28:08.231Z,2.60
2023-04-14T05:30:34.959Z,3.10
2023-04-14T05:33:01.819Z,2.92
2023-04-14T05:35:28.667Z,4.40
2023-04-14T05:37:55.526Z,3.53
2023-04-14T05:40:22.600Z,3.65
2023-04-14T05:42:49.312Z,2.83
2023-04-14T05:45:16.281Z,3.40
2023-04-14T05:47:43.057Z,3.33
2023-04-14T05:50:10.201Z,3.42
2023-04-14T05:52:36.877Z,4.68
2023-04-14T05:55:03.709Z,4.47
2023-04-14T05:57:30.452Z,4.75
2023-04-14T05:59:58.324Z,3.80
2023-04-14T06:02:25.345Z,2.92
2023-04-14T06:04:52.224Z,2.90
2023-04-14T06:07:19.056Z,2.85
2023-04-14T06:09:48.574Z,3.20
2023-04-14T06:12:15.793Z,3.55
2023-04-14T06:14:42.514Z,3.38
2023-04-14T06:17:09.403Z,2.60
2023-04-14T06:19:36.119Z,4.80
2023-04-14T06:22:02.830Z,5.38
2023-04-14T06:24:29.532Z,4.72
2023-04-14T06:26:56.215Z,4.20
2023-04-14T06:29:22.902Z,4.95
2023-04-14T06:31:51.898Z,3.90
2023-04-14T06:34:18.670Z,3.15
2023-04-14T06:36:45.590Z,4.72
2023-04-14T06:39:13.564Z,4.18
2023-04-14T06:41:40.700Z,3.75
2023-04-14T06:44:07.748Z,2.70
2023-04-14T06:46:36.060Z,3.45
2023-04-14T06:49:03.936Z,4.38
2023-04-14T06:51:34.359Z,4.50
2023-04-14T06:54:01.381Z,4.60
2023-04-14T06:56:28.288Z,4.28
2023-04-14T06:58:55.395Z,5.07
2023-04-14T07:01:22.164Z,5.18
2023-04-14T07:03:48.891Z,3.45
2023-04-14T07:06:17.192Z,3.85
2023-04-14T07:08:45.019Z,3.80
2023-04-14T07:11:12.367Z,5.25
2023-04-14T07:13:39.545Z,4.88
2023-04-14T07:16:07.612Z,6.47
2023-04-14T07:18:35.370Z,5.30
2023-04-14T07:21:02.559Z,5.97
2023-04-14T07:23:29.351Z,4.60
2023-04-14T07:25:58.395Z,5.00
2023-04-14T07:28:26.919Z,6.20
2023-04-14T07:30:54.113Z,6.70
2023-04-14T07:33:22.426Z,6.70
2023-04-14T07:36:02.103Z,4.85
2023-04-14T07:38:29.901Z,4.55
2023-04-14T07:40:56.700Z,3.47
2023-04-14T07:43:23.931Z,5.25
2023-04-14T07:45:52.447Z,4.93
2023-04-14T07:48:22.251Z,5.43
2023-04-14T07:50:52.350Z,6.13
2023-04-14T07:53:19.048Z,5.18
2023-04-14T07:55:45.933Z,5.15
2023-04-14T07:58:15.328Z,4.82
2023-04-14T08:00:42.830Z,5.38
2023-04-14T08:03:10.038Z,5.15
2023-04-14T08:05:37.637Z,5.18
2023-04-14T08:08:04.691Z,5.35
2023-04-14T08:10:31.392Z,4.75
2023-04-14T08:12:58.137Z,4.13
2023-04-14T08:15:24.833Z,4.82
2023-04-14T08:17:52.039Z,5.07
2023-04-14T08:20:18.871Z,4.55
2023-04-14T08:22:46.397Z,5.53
2023-04-14T08:25:13.114Z,5.07
2023-04-14T08:27:39.810Z,4.68
2023-04-14T08:30:08.894Z,5.43
2023-04-14T08:32:37.103Z,5.30
2023-04-14T08:35:39.630Z,5.38
2023-04-14T08:37:50.748Z,4.15
2023-04-14T08:40:18.357Z,4.90
2023-04-14T08:42:46.303Z,3.60
2023-04-14T08:45:13.274Z,3.00
2023-04-14T08:47:40.856Z,3.88
2023-04-14T08:50:13.716Z,3.33
2023-04-14T08:52:41.635Z,3.20
2023-04-14T08:55:09.100Z,3.47
2023-04-14T08:57:36.580Z,3.03
2023-04-14T09:00:04.992Z,2.95
2023-04-14T09:02:35.379Z,3.35
2023-04-14T09:05:02.427Z,2.92
2023-04-14T09:07:30.299Z,2.25
2023-04-14T09:09:57.908Z,2.47
2023-04-14T09:12:27.231Z,2.03
2023-04-14T09:14:54.228Z,2.97
2023-04-14T09:17:21.125Z,3.45
2023-04-14T09:20:36.567Z,3.22
2023-04-14T09:22:34.889Z,2.20
2023-04-14T09:25:03.392Z,2.33
2023-04-14T09:27:30.228Z,2.58
2023-04-14T09:29:58.484Z,2.63
2023-04-14T09:32:26.041Z,2.45
2023-04-14T09:34:55.613Z,2.45
2023-04-14T09:37:24.451Z,3.63
2023-04-14T09:39:52.395Z,2.30
2023-04-14T09:42:19.498Z,2.72
2023-04-14T09:44:57.016Z,3.03
2023-04-14T09:47:25.959Z,2.65
2023-04-14T09:49:58.719Z,3.58
2023-04-14T09:52:41.319Z,2.33
2023-04-14T09:55:14.314Z,2.33
2023-04-14T09:57:47.802Z,2.15
2023-04-14T10:00:24.540Z,2.17
2023-04-14T10:02:56.383Z,2.58
2023-04-14T10:05:27.773Z,2.55
2023-04-14T10:07:55.400Z,2.30
2023-04-14T10:10:23.538Z,2.80
2023-04-14T10:12:53.017Z,2.25
2023-04-14T10:15:19.844Z,2.28
2023-04-14T10:17:46.623Z,1.52
2023-04-14T10:20:14.136Z,2.00
2023-04-14T10:22:41.861Z,2.15
2023-04-14T10:25:10.112Z,2.08
2023-04-14T10:27:37.623Z,2.15
2023-04-14T10:30:06.140Z,1.65
2023-04-14T10:32:35.479Z,2.50
2023-04-14T10:35:07.435Z,1.98
2023-04-14T10:37:34.882Z,2.22
2023-04-14T10:40:08.060Z,1.45
2023-04-14T10:42:55.002Z,1.70
2023-04-14T10:45:22.263Z,1.80
2023-04-14T10:47:50.264Z,2.28
2023-04-14T10:50:18.627Z,2.15
2023-04-14T10:52:56.133Z,2.22
2023-04-14T10:55:27.964Z,1.58
2023-04-14T10:58:06.153Z,1.38
2023-04-14T11:00:38.171Z,1.55
2023-04-14T11:03:12.719Z,1.77
2023-04-14T11:05:43.540Z,1.50
2023-04-14T11:08:36.123Z,1.50
2023-04-14T11:11:07.251Z,1.48
2023-04-14T11:13:34.911Z,1.55
2023-04-14T11:16:06.808Z,1.50
2023-04-14T11:18:45.349Z,1.77
2023-04-14T11:21:26.253Z,1.50
2023-04-14T11:23:53.016Z,1.42
2023-04-14T11:26:19.856Z,1.40
2023-04-14T11:28:46.836Z,1.33
2023-04-14T11:31:16.760Z,1.17
2023-04-14T11:33:44.631Z,1.88
2023-04-14T11:36:12.832Z,1.70
2023-04-14T11:38:40.534Z,1.30
2023-04-14T11:41:08.578Z,1.83
2023-04-14T11:43:37.446Z,1.70
2023-04-14T11:46:05.988Z,1.30
2023-04-14T11:48:32.881Z,1.38
2023-04-14T11:51:03.762Z,1.63
2023-04-14T11:53:30.865Z,1.30
2023-04-14T11:55:57.660Z,1.27
2023-04-14T11:58:26.681Z,1.45
2023-04-14T12:00:56.192Z,1.20
2023-04-14T12:03:30.031Z,1.00
2023-04-14T12:06:03.129Z,1.35
2023-04-14T12:08:34.477Z,0.82
2023-04-14T12:11:15.619Z,1.20
2023-04-14T12:13:44.142Z,1.50
2023-04-14T12:16:15.768Z,1.52
2023-04-14T12:21:11.947Z,1.38
2023-04-14T12:23:39.988Z,1.20
2023-04-14T12:26:13.115Z,1.35
2023-04-14T12:28:41.611Z,2.00
2023-04-14T12:31:09.197Z,1.27
2023-04-14T12:33:36.032Z,1.33
2023-04-14T12:36:09.871Z,1.30
2023-04-14T12:38:36.690Z,1.15
2023-04-14T12:41:03.647Z,1.90
2023-04-14T12:43:36.277Z,1.10
2023-04-14T12:46:04.496Z,1.05
2023-04-14T12:48:46.937Z,1.35
2023-04-14T12:51:18.693Z,1.48
2023-04-14T12:56:22.238Z,1.50
2023-04-14T12:58:49.467Z,1.60
2023-04-14T13:01:18.922Z,0.93
2023-04-14T13:03:51.756Z,0.82
2023-04-14T13:06:20.872Z,0.98
2023-04-14T13:08:49.718Z,0.98
2023-04-14T13:11:17.646Z,1.30
2023-04-14T13:13:45.393Z,1.42
2023-04-14T13:16:17.096Z,1.00
2023-04-14T13:18:46.548Z,1.10
2023-04-14T13:21:13.441Z,1.60
2023-04-14T13:23:40.998Z,1.30
2023-04-14T13:26:07.963Z,1.30
2023-04-14T13:28:35.135Z,1.17
2023-04-14T13:31:01.904Z,1.80
2023-04-14T13:33:28.716Z,1.58
2023-04-14T13:35:56.406Z,1.13
2023-04-14T13:38:23.131Z,1.05
2023-04-14T13:40:49.877Z,1.10
2023-04-14T13:43:21.495Z,1.00
2023-04-14T13:45:48.317Z,1.10
2023-04-14T13:48:15.005Z,0.60
2023-04-14T13:50:42.173Z,1.13
2023-04-14T13:53:09.165Z,1.15
2023-04-14T13:55:36.234Z,0.95
2023-04-14T13:58:03.336Z,1.10
2023-04-14T14:00:30.359Z,0.80
2023-04-14T14:02:57.206Z,0.75
2023-04-14T14:05:24.289Z,0.70
2023-04-14T14:07:51.101Z,1.00
2023-04-14T14:10:17.894Z,1.20
2023-04-14T14:12:44.853Z,1.20
2023-04-14T14:15:12.317Z,1.10
2023-04-14T14:17:39.176Z,0.98
2023-04-14T14:20:08.338Z,0.80
2023-04-14T14:22:35.316Z,1.10
2023-04-14T14:25:17.686Z,1.00
2023-04-14T14:27:45.790Z,1.90
2023-04-14T14:30:13.081Z,1.10
2023-04-14T14:32:39.905Z,1.02
2023-04-14T14:35:06.946Z,0.75
2023-04-14T14:37:33.838Z,0.90
2023-04-14T14:40:00.592Z,0.60
2023-04-14T14:42:27.311Z,0.98
2023-04-14T14:44:54.295Z,0.80
2023-04-14T14:47:21.319Z,0.75
2023-04-14T14:49:59.119Z,0.80
2023-04-14T14:52:31.492Z,0.85
2023-04-14T14:54:58.261Z,0.90
2023-04-14T14:57:25.696Z,1.23
2023-04-14T14:59:52.806Z,1.42
2023-04-14T15:02:21.032Z,0.80
2023-04-14T15:04:48.182Z,1.15
2023-04-14T15:07:15.247Z,0.95
2023-04-14T15:09:42.048Z,0.95
2023-04-14T15:12:09.416Z,0.90
2023-04-14T15:14:36.234Z,1.02
2023-04-14T15:17:03.092Z,0.90
2023-04-14T15:19:29.779Z,1.10
2023-04-14T15:21:56.495Z,1.23
2023-04-14T15:24:23.185Z,1.00
2023-04-14T15:26:49.917Z,1.30
2023-04-14T15:29:16.782Z,1.40
2023-04-14T15:31:43.541Z,0.95
2023-04-14T15:34:10.418Z,1.20
2023-04-14T15:36:37.152Z,1.40
2023-04-14T15:39:04.013Z,1.00
2023-04-14T15:41:30.897Z,0.80
2023-04-14T15:43:58.121Z,0.98
2023-04-14T15:46:24.931Z,1.10
2023-04-14T15:48:51.649Z,1.55
2023-04-14T15:51:18.499Z,0.70
2023-04-14T15:53:45.373Z,1.08
2023-04-14T15:56:12.454Z,0.68
2023-04-14T15:58:39.183Z,1.02
2023-04-14T16:01:08.957Z,1.10
2023-04-14T16:03:36.700Z,0.90
2023-04-14T16:06:06.767Z,0.70
2023-04-14T16:08:33.519Z,0.93
2023-04-14T16:11:00.290Z,0.88
2023-04-14T16:13:27.424Z,2.15
2023-04-14T16:15:54.179Z,1.08
2023-04-14T16:18:21.162Z,1.10
2023-04-14T16:20:50.006Z,1.08
2023-04-14T16:23:16.814Z,1.10
2023-04-14T16:25:51.185Z,1.08
2023-04-14T16:28:18.003Z,0.90
2023-04-14T16:30:45.848Z,0.80
2023-04-14T16:33:12.784Z,0.90
2023-04-14T16:35:39.694Z,0.77
2023-04-14T16:38:08.545Z,1.02
2023-04-14T16:40:36.479Z,1.25
2023-04-14T16:43:04.304Z,0.77
2023-04-14T16:45:32.133Z,1.05
2023-04-14T16:47:58.932Z,1.00
2023-04-14T16:50:26.918Z,1.08
2023-04-14T16:52:53.841Z,1.02
2023-04-14T16:55:20.559Z,0.90
2023-04-14T16:57:47.320Z,3.25
2023-04-14T17:00:14.541Z,2.60
2023-04-14T17:02:41.460Z,2.00
2023-04-14T17:05:11.148Z,5.55
2023-04-14T17:07:37.976Z,2.05
2023-04-14T17:10:05.146Z,2.83
2023-04-14T17:12:32.114Z,2.08
2023-04-14T17:15:00.268Z,4.88
2023-04-14T17:17:28.388Z,11.52
2023-04-14T17:19:56.770Z,7.00
2023-04-14T17:22:24.569Z,4.03
2023-04-14T17:24:52.054Z,4.32
2023-04-14T17:27:19.069Z,3.50
2023-04-14T17:29:46.290Z,3.85
2023-04-14T17:32:13.237Z,3.13
2023-04-14T17:34:40.103Z,3.50
2023-04-14T17:37:06.898Z,4.40
2023-04-14T17:39:33.897Z,3.40
2023-04-14T17:42:01.393Z,4.10
2023-04-14T17:44:33.639Z,3.97
2023-04-14T17:47:02.890Z,3.10
2023-04-14T17:49:30.403Z,2.60
2023-04-14T17:51:58.001Z,2.47
2023-04-14T17:54:25.736Z,2.03
2023-04-14T17:56:52.749Z,1.60
2023-04-14T17:59:20.502Z,2.67
2023-04-14T18:01:47.397Z,2.08
2023-04-14T18:04:14.356Z,2.25
2023-04-14T18:06:42.289Z,2.30
2023-04-14T18:09:09.563Z,1.60
2023-04-14T18:11:36.623Z,1.60
2023-04-14T18:14:03.736Z,2.28
2023-04-14T18:16:31.292Z,1.77
2023-04-14T18:18:58.011Z,1.25
2023-04-14T18:21:24.795Z,1.90
2023-04-14T18:28:51.561Z,1.70
2023-04-14T18:31:18.202Z,1.70
2023-04-14T18:33:46.185Z,2.53
2023-04-14T18:36:12.851Z,1.40
2023-04-14T18:38:39.582Z,1.80
2023-04-14T18:41:06.632Z,1.95
2023-04-14T18:43:33.676Z,1.60
2023-04-14T18:46:00.469Z,2.15
2023-04-14T18:48:27.576Z,1.67
2023-04-14T18:51:02.530Z,1.60
2023-04-14T18:53:29.471Z,1.55
2023-04-14T18:55:56.205Z,1.73
2023-04-14T18:58:23.796Z,1.80
2023-04-14T19:00:51.383Z,2.20
2023-04-14T19:03:18.502Z,1.80
2023-04-14T19:05:45.342Z,1.92
2023-04-14T19:08:12.069Z,1.45
2023-04-14T19:10:39.749Z,2.42
2023-04-14T19:13:06.579Z,2.40
2023-04-14T19:15:33.356Z,2.10
2023-04-14T19:18:01.365Z,2.30
2023-04-14T19:20:28.184Z,2.88
2023-04-14T19:22:54.921Z,2.15
2023-04-14T19:25:22.305Z,2.67
2023-04-14T19:27:49.361Z,2.78
2023-04-14T19:30:16.150Z,2.28
2023-04-14T19:32:43.186Z,1.77
2023-04-14T19:35:10.721Z,2.92
2023-04-14T19:37:38.369Z,2.63
2023-04-14T19:40:06.804Z,2.50
2023-04-14T19:42:33.772Z,2.28
2023-04-14T19:45:01.125Z,2.03
2023-04-14T19:47:28.001Z,3.05
2023-04-14T19:49:55.279Z,2.10
2023-04-14T19:52:22.414Z,2.35
2023-04-14T19:54:49.971Z,3.20
2023-04-14T19:57:17.036Z,2.30
2023-04-14T19:59:44.277Z,2.50
2023-04-14T20:02:13.182Z,2.33
2023-04-14T20:04:40.460Z,3.13
2023-04-14T20:07:07.528Z,2.40
2023-04-14T20:09:34.665Z,2.25
2023-04-14T20:12:02.222Z,2.70
2023-04-14T20:14:29.390Z,2.20
2023-04-14T20:16:56.557Z,2.05
2023-04-14T20:19:24.056Z,2.45
2023-04-14T20:21:50.994Z,2.60
2023-04-14T20:24:17.885Z,2.35
2023-04-14T20:26:45.086Z,2.42
2023-04-14T20:29:12.467Z,2.70
2023-04-14T20:31:41.603Z,2.72
2023-04-14T20:34:09.758Z,2.55
2023-04-14T20:36:37.730Z,2.38
2023-04-14T20:39:05.691Z,2.40
2023-04-14T20:41:33.919Z,2.55
2023-04-14T20:44:01.260Z,2.42
2023-04-14T20:46:28.771Z,2.38
2023-04-14T20:48:56.684Z,2.45
2023-04-14T20:51:23.661Z,2.60
2023-04-14T20:53:50.803Z,2.60
2023-04-14T20:56:17.846Z,2.20
2023-04-14T20:58:45.552Z,2.05
2023-04-14T21:01:12.577Z,2.35
2023-04-14T21:03:39.696Z,2.40
2023-04-14T21:06:06.688Z,2.30
2023-04-14T21:08:33.531Z,2.08
2023-04-14T21:11:14.685Z,2.42
2023-04-14T21:15:28.860Z,3.38
2023-04-14T21:16:30.908Z,2.78
2023-04-14T21:18:57.703Z,3.10
2023-04-14T21:21:24.608Z,2.33
2023-04-14T21:23:51.326Z,2.80
2023-04-14T21:26:18.916Z,2.17
2023-04-14T21:28:45.733Z,2.15
2023-04-14T21:31:12.473Z,2.53
2023-04-14T21:33:41.571Z,2.47
2023-04-14T21:36:09.725Z,3.08
2023-04-14T21:38:38.399Z,2.60
2023-04-14T21:41:06.005Z,2.35
2023-04-14T21:43:32.709Z,2.40
2023-04-14T21:45:59.517Z,2.42
2023-04-14T21:48:26.456Z,2.67
2023-04-14T21:50:53.144Z,2.92
2023-04-14T21:53:20.675Z,2.20
2023-04-14T21:55:47.387Z,2.53
2023-04-14T21:58:34.094Z,2.67
2023-04-14T22:01:01.466Z,2.30
2023-04-14T22:03:28.566Z,2.70
2023-04-14T22:05:55.481Z,2.80
2023-04-14T22:08:23.608Z,2.80
2023-04-14T22:10:50.373Z,2.22
2023-04-14T22:13:17.142Z,2.72
2023-04-14T22:15:43.972Z,3.13
2023-04-14T22:18:11.543Z,2.88
2023-04-14T22:20:39.204Z,2.28
2023-04-14T22:23:06.001Z,2.63
2023-04-14T22:25:33.229Z,2.78
2023-04-14T22:28:00.066Z,2.85
2023-04-14T22:30:28.175Z,2.70
2023-04-14T22:32:55.023Z,2.80
2023-04-14T22:35:21.978Z,2.70
2023-04-14T22:37:48.689Z,2.85
2023-04-14T22:40:15.385Z,3.00
2023-04-14T22:42:42.138Z,3.33
2023-04-14T22:45:09.685Z,2.40
2023-04-14T22:47:36.509Z,2.85
2023-04-14T22:50:03.350Z,2.90
2023-04-14T22:52:30.632Z,2.97
2023-04-14T22:54:57.324Z,2.30
2023-04-14T22:57:24.082Z,2.83
2023-04-14T22:59:50.808Z,2.88
2023-04-14T23:02:17.610Z,2.70
2023-04-14T23:04:44.758Z,2.70
2023-04-14T23:07:12.187Z,2.80
2023-04-14T23:09:38.999Z,2.33
2023-04-14T23:12:06.237Z,2.75
2023-04-14T23:14:33.140Z,2.53
2023-04-14T23:16:59.961Z,3.45
2023-04-14T23:19:27.088Z,2.70
2023-04-14T23:21:53.793Z,2.55
2023-04-14T23:24:22.321Z,3.05
2023-04-14T23:26:49.025Z,3.25
2023-04-14T23:29:16.005Z,3.33
2023-04-14T23:31:42.774Z,2.90
2023-04-14T23:34:10.921Z,3.13
2023-04-14T23:36:37.779Z,3.08
2023-04-14T23:39:04.680Z,3.15
2023-04-14T23:41:31.447Z,3.38
2023-04-14T23:43:58.444Z,4.00
2023-04-14T23:46:25.167Z,3.22
2023-04-14T23:48:53.447Z,4.32
2023-04-14T23:51:21.645Z,3.40
2023-04-14T23:53:49.159Z,3.20
2023-04-14T23:56:16.325Z,3.03
2023-04-14T23:58:43.212Z,3.22
